createdAt,value
2019-01-03T00:02:37.678Z,5.03
2019-01-03T00:07:46.610Z,5.31
2019-01-03T00:12:55.563Z,5.25
2019-01-03T00:18:04.483Z,5.32
2019-01-03T00:23:13.526Z,5.85
2019-01-03T00:28:22.453Z,5.36
2019-01-03T00:33:31.410Z,4.90
2019-01-03T00:38:40.346Z,5.07
2019-01-03T00:43:49.389Z,4.67
2019-01-03T00:48:58.286Z,4.92
2019-01-03T00:54:07.290Z,5.02
2019-01-03T00:59:16.241Z,4.46
2019-01-03T01:04:25.274Z,4.73
2019-01-03T01:09:34.171Z,4.41
2019-01-03T01:14:43.166Z,4.84
2019-01-03T01:19:52.102Z,4.58
2019-01-03T01:25:01.126Z,4.41
2019-01-03T01:30:10.071Z,4.11
2019-01-03T01:35:19.086Z,4.43
2019-01-03T01:40:28.004Z,4.24
2019-01-03T01:45:37.038Z,4.73
2019-01-03T01:50:45.983Z,3.99
2019-01-03T01:55:54.986Z,3.97
2019-01-03T02:01:03.934Z,4.03
2019-01-03T02:06:12.941Z,4.30
2019-01-03T02:11:21.891Z,4.16
2019-01-03T02:16:30.902Z,3.62
2019-01-03T02:21:39.819Z,3.33
2019-01-03T02:26:48.794Z,3.50
2019-01-03T02:31:57.696Z,3.55
2019-01-03T02:37:06.686Z,3.49
2019-01-03T02:42:15.618Z,3.62
2019-01-03T02:47:24.582Z,3.27
2019-01-03T02:52:33.536Z,3.65
2019-01-03T02:57:42.490Z,3.48
2019-01-03T03:02:51.415Z,3.00
2019-01-03T03:08:00.434Z,2.98
2019-01-03T03:13:09.358Z,2.86
2019-01-03T03:18:18.418Z,2.53
2019-01-03T03:23:27.371Z,2.73
2019-01-03T03:28:36.400Z,2.99
2019-01-03T03:33:45.335Z,2.34
2019-01-03T03:38:54.357Z,2.32
2019-01-03T03:44:03.284Z,2.46
2019-01-03T03:49:12.234Z,2.42
2019-01-03T03:54:21.171Z,2.85
2019-01-03T03:59:30.167Z,2.59
2019-01-03T04:04:39.104Z,2.43
2019-01-03T04:09:48.120Z,2.69
2019-01-03T04:14:57.039Z,2.54
2019-01-03T04:20:06.183Z,2.69
2019-01-03T04:25:15.122Z,2.50
2019-01-03T04:30:24.074Z,2.87
2019-01-03T04:35:33.016Z,2.72
2019-01-03T04:40:41.982Z,2.83
2019-01-03T04:45:50.911Z,2.87
2019-01-03T04:50:59.885Z,2.47
2019-01-03T04:56:08.816Z,2.75
2019-01-03T05:01:17.748Z,2.80
2019-01-03T05:06:26.683Z,2.81
2019-01-03T05:11:35.662Z,2.93
2019-01-03T05:16:44.591Z,2.88
2019-01-03T05:21:53.581Z,3.05
2019-01-03T05:27:02.526Z,2.98
2019-01-03T05:32:11.538Z,3.11
2019-01-03T05:37:20.446Z,3.55
2019-01-03T05:42:29.413Z,3.73
2019-01-03T05:47:38.336Z,3.40
2019-01-03T05:52:47.364Z,3.44
2019-01-03T05:57:56.279Z,3.56
2019-01-03T06:03:05.298Z,3.13
2019-01-03T06:08:14.226Z,3.80
2019-01-03T06:13:23.214Z,3.16
2019-01-03T06:18:32.158Z,3.27
2019-01-03T06:23:41.235Z,2.85
2019-01-03T06:28:50.177Z,3.28
2019-01-03T06:33:59.194Z,3.70
2019-01-03T06:39:08.130Z,3.26
2019-01-03T06:44:17.114Z,3.35
2019-01-03T06:49:26.046Z,2.93
2019-01-03T06:54:34.994Z,3.08
2019-01-03T06:59:43.910Z,3.32
2019-01-03T07:04:52.894Z,2.84
2019-01-03T07:10:01.831Z,3.00
2019-01-03T07:15:10.916Z,3.11
2019-01-03T07:20:19.843Z,3.01
2019-01-03T07:25:28.922Z,2.69
2019-01-03T07:30:37.850Z,2.92
2019-01-03T07:35:46.863Z,2.50
2019-01-03T07:40:55.783Z,2.76
2019-01-03T07:46:04.848Z,3.06
2019-01-03T07:51:13.774Z,2.93
2019-01-03T07:56:22.759Z,3.12
2019-01-03T08:01:31.699Z,3.17
2019-01-03T08:06:40.670Z,3.17
2019-01-03T08:11:49.598Z,2.89
2019-01-03T08:16:58.647Z,2.98
2019-01-03T08:22:07.598Z,3.50
2019-01-03T08:27:16.615Z,2.86
2019-01-03T08:32:25.543Z,3.88
2019-01-03T08:37:34.566Z,3.52
2019-01-03T08:42:43.495Z,3.21
2019-01-03T08:47:52.524Z,3.26
2019-01-03T08:53:01.451Z,2.64
2019-01-03T08:58:10.498Z,2.75
2019-01-03T09:03:19.422Z,2.74
2019-01-03T09:08:28.411Z,2.98
2019-01-03T09:13:37.340Z,3.76
2019-01-03T09:18:46.363Z,4.81
2019-01-03T09:23:56.374Z,4.98
2019-01-03T09:29:03.807Z,5.62
2019-01-03T09:34:12.747Z,5.61
2019-01-03T09:39:21.751Z,6.26
2019-01-03T09:44:30.689Z,5.65
2019-01-03T09:49:39.782Z,5.48
2019-01-03T09:54:48.714Z,6.14
2019-01-03T09:59:57.686Z,5.33
2019-01-03T10:05:06.622Z,5.30
2019-01-03T10:10:15.614Z,5.72
2019-01-03T10:15:24.554Z,5.00
2019-01-03T10:20:33.506Z,4.46
2019-01-03T10:25:42.475Z,4.05
2019-01-03T10:30:57.250Z,3.67
2019-01-03T10:35:56.186Z,3.06
2019-01-03T10:41:05.234Z,3.82
2019-01-03T10:46:14.170Z,2.86
2019-01-03T10:51:23.147Z,2.76
2019-01-03T10:56:32.066Z,2.62
2019-01-03T11:01:41.016Z,3.33
2019-01-03T11:06:49.967Z,2.91
2019-01-03T11:11:58.938Z,2.91
2019-01-03T11:17:07.883Z,2.05
2019-01-03T11:22:16.842Z,2.39
2019-01-03T11:27:25.795Z,2.21
2019-01-03T11:32:34.794Z,2.35
2019-01-03T11:37:43.719Z,2.58
2019-01-03T11:42:52.683Z,2.25
2019-01-03T11:48:01.638Z,2.30
2019-01-03T11:53:10.636Z,2.60
2019-01-03T11:58:19.567Z,2.27
2019-01-03T12:03:28.543Z,2.28
2019-01-03T12:08:37.495Z,2.63
2019-01-03T12:13:46.454Z,2.55
2019-01-03T12:18:55.391Z,2.54
2019-01-03T12:24:04.358Z,2.16
2019-01-03T12:29:13.394Z,2.29
2019-01-03T12:34:22.339Z,2.36
2019-01-03T12:39:31.367Z,1.86
2019-01-03T12:44:40.306Z,1.86
2019-01-03T12:49:49.262Z,1.99
2019-01-03T12:54:58.211Z,1.95
2019-01-03T13:00:07.242Z,1.99
2019-01-03T13:05:16.176Z,2.25
2019-01-03T13:10:25.190Z,2.44
2019-01-03T13:15:34.126Z,2.07
2019-01-03T13:20:43.231Z,1.63
2019-01-03T13:25:52.143Z,2.10
2019-01-03T13:31:01.146Z,1.98
2019-01-03T13:36:10.152Z,1.77
2019-01-03T13:41:19.131Z,2.13
2019-01-03T13:46:28.074Z,2.14
2019-01-03T13:51:37.103Z,2.04
2019-01-03T13:56:46.036Z,2.19
2019-01-03T14:01:55.055Z,2.26
2019-01-03T14:07:03.999Z,2.43
2019-01-03T14:12:13.098Z,2.43
2019-01-03T14:17:22.038Z,2.65
2019-01-03T14:22:31.006Z,2.61
2019-01-03T14:27:39.943Z,3.19
2019-01-03T14:32:48.974Z,3.06
2019-01-03T14:37:57.923Z,3.50
2019-01-03T14:43:06.903Z,3.06
2019-01-03T14:48:15.843Z,2.63
2019-01-03T14:53:24.882Z,2.69
2019-01-03T14:58:33.831Z,2.32
2019-01-03T15:03:42.850Z,2.61
2019-01-03T15:08:51.811Z,2.69
2019-01-03T15:14:00.837Z,2.77
2019-01-03T15:19:09.782Z,3.04
2019-01-03T15:24:18.786Z,3.43
2019-01-03T15:29:27.738Z,3.20
2019-01-03T15:34:36.739Z,3.26
2019-01-03T15:39:45.687Z,3.88
2019-01-03T15:44:54.687Z,3.83
2019-01-03T15:50:03.634Z,3.68
2019-01-03T15:55:12.623Z,3.97
2019-01-03T16:00:21.563Z,3.44
2019-01-03T16:05:31.331Z,3.22
2019-01-03T16:10:40.251Z,3.69
2019-01-03T16:15:49.258Z,4.05
2019-01-03T16:20:58.214Z,3.99
2019-01-03T16:26:07.221Z,4.65
2019-01-03T16:31:16.148Z,4.18
2019-01-03T16:36:25.136Z,4.46
2019-01-03T16:41:34.062Z,4.95
2019-01-03T16:46:43.114Z,5.46
2019-01-03T16:51:52.055Z,5.02
2019-01-03T16:57:01.018Z,5.62
2019-01-03T17:02:09.960Z,5.59
2019-01-03T17:07:19.062Z,6.26
2019-01-03T17:12:27.990Z,6.12
2019-01-03T17:17:36.938Z,6.63
2019-01-03T17:22:45.870Z,7.04
2019-01-03T17:27:53.366Z,6.86
2019-01-03T17:33:02.290Z,6.94
2019-01-03T17:38:11.263Z,6.66
2019-01-03T17:43:20.207Z,7.83
2019-01-03T17:48:29.185Z,8.11
2019-01-03T17:53:38.118Z,7.51
2019-01-03T17:58:47.206Z,9.19
2019-01-03T18:03:56.161Z,9.63
2019-01-03T18:09:05.102Z,7.59
2019-01-03T18:14:14.037Z,7.13
2019-01-03T18:19:22.982Z,6.45
2019-01-03T18:24:31.954Z,6.04
2019-01-03T18:29:40.908Z,6.89
2019-01-03T18:34:49.852Z,6.89
2019-01-03T18:39:58.910Z,8.06
2019-01-03T18:45:07.828Z,8.15
2019-01-03T18:50:18.960Z,7.29
2019-01-03T18:55:25.290Z,7.37
2019-01-03T19:00:34.254Z,7.29
2019-01-03T19:05:43.182Z,7.44
2019-01-03T19:10:52.175Z,7.65
2019-01-03T19:16:01.094Z,9.05
2019-01-03T19:21:10.149Z,8.25
2019-01-03T19:26:19.076Z,7.59
2019-01-03T19:31:28.081Z,7.77
2019-01-03T19:36:37.014Z,8.35
2019-01-03T19:41:46.006Z,7.92
2019-01-03T19:46:54.958Z,8.57
2019-01-03T19:52:03.970Z,8.68
2019-01-03T19:57:12.918Z,9.01
2019-01-03T20:02:21.930Z,9.06
2019-01-03T20:07:30.870Z,12.19
2019-01-03T20:12:39.807Z,13.06
2019-01-03T20:17:48.830Z,11.91
2019-01-03T20:22:57.756Z,10.94
2019-01-03T20:28:06.778Z,12.40
2019-01-03T20:33:15.710Z,12.26
2019-01-03T20:38:24.786Z,12.50
2019-01-03T20:43:39.122Z,12.46
2019-01-03T20:48:42.270Z,13.86
2019-01-03T20:53:51.206Z,12.34
2019-01-03T20:59:00.239Z,12.48
2019-01-03T21:04:09.154Z,11.98
2019-01-03T21:09:18.166Z,15.12
2019-01-03T21:14:27.086Z,12.56
2019-01-03T21:19:36.114Z,13.10
2019-01-03T21:24:45.087Z,13.44
2019-01-03T21:29:54.110Z,13.40
2019-01-03T21:35:03.034Z,12.60
2019-01-03T21:40:12.010Z,14.82
2019-01-03T21:45:20.930Z,12.56
2019-01-03T21:50:29.891Z,13.60
2019-01-03T21:55:38.915Z,13.86
2019-01-03T22:00:47.830Z,15.74
2019-01-03T22:05:56.782Z,13.69
2019-01-03T22:11:05.716Z,13.56
2019-01-03T22:16:14.646Z,14.84
2019-01-03T22:21:23.606Z,16.15
2019-01-03T22:26:32.614Z,16.76
2019-01-03T22:31:41.546Z,15.06
2019-01-03T22:36:50.557Z,15.03
2019-01-03T22:41:59.445Z,14.91
2019-01-03T22:47:08.410Z,15.43
2019-01-03T22:52:17.327Z,15.27
2019-01-03T22:57:26.390Z,16.04
2019-01-03T23:02:35.311Z,15.58
2019-01-03T23:07:44.298Z,15.90
2019-01-03T23:12:53.227Z,16.18
2019-01-03T23:18:02.339Z,15.67
2019-01-03T23:23:11.176Z,16.05
2019-01-03T23:28:20.123Z,17.23
2019-01-03T23:33:29.059Z,17.28
2019-01-03T23:38:38.069Z,17.62
2019-01-03T23:43:47.003Z,15.45
2019-01-03T23:48:55.986Z,14.83
2019-01-03T23:54:04.930Z,16.05
2019-01-03T23:59:13.931Z,16.83
